Time;durP1;ratioP1;P1;durP2;ratioP2;P2;SDS_P1;SDS_P2;PMS_P1;PMS_P2;Temp;Humidity;BMP_temperature;BMP_pressure;BME280_temperature;BME280_humidity;BME280_pressure;Samples;Min_cycle;Max_cycle;Signal;HPM_P1;HPM_P2
2023/08/31 00:02:15;;;;;;;2.30;0.57;;;15.90;96.40;;;;;;5096672;28;20202;-80
2023/08/31 00:04:40;;;;;;;1.60;0.68;;;15.90;96.50;;;;;;5098020;28;20028;-79
2023/08/31 00:07:06;;;;;;;1.02;0.30;;;15.90;96.60;;;;;;5099053;28;20487;-79
2023/08/31 00:09:32;;;;;;;1.55;0.38;;;16.00;96.90;;;;;;5098912;28;20024;-80
2023/08/31 00:11:58;;;;;;;1.13;0.55;;;16.10;97.10;;;;;;5099287;28;20042;-80
2023/08/31 00:14:26;;;;;;;0.90;0.50;;;16.20;97.00;;;;;;5081852;28;20026;-79
2023/08/31 00:16:52;;;;;;;1.83;0.73;;;16.20;96.70;;;;;;5097640;28;20028;-79
2023/08/31 00:19:17;;;;;;;1.88;0.88;;;16.30;96.70;;;;;;5097381;28;20459;-78
2023/08/31 00:21:43;;;;;;;1.55;0.77;;;16.20;96.40;;;;;;5095585;28;20453;-77
2023/08/31 00:24:12;;;;;;;2.33;0.70;;;16.20;96.40;;;;;;5095866;28;20043;-79
2023/08/31 00:26:40;;;;;;;1.70;0.70;;;16.20;96.50;;;;;;5095417;28;20024;-79
2023/08/31 00:29:06;;;;;;;1.55;1.10;;;16.20;96.50;;;;;;5098843;28;20035;-80
2023/08/31 00:31:33;;;;;;;3.10;0.70;;;16.20;96.50;;;;;;5099561;28;20055;-79
2023/08/31 00:34:04;;;;;;;2.88;0.70;;;16.20;96.40;;;;;;5097085;28;20024;-79
2023/08/31 00:36:33;;;;;;;2.17;0.60;;;16.10;96.50;;;;;;5096331;28;20044;-79
2023/08/31 00:39:05;;;;;;;1.08;0.45;;;16.10;96.50;;;;;;5095552;28;20414;-79
2023/08/31 00:41:31;;;;;;;2.35;0.70;;;16.20;96.80;;;;;;5097036;28;20063;-79
2023/08/31 00:43:56;;;;;;;2.83;0.80;;;16.20;97.00;;;;;;5095049;28;20483;-79
2023/08/31 00:46:22;;;;;;;1.75;0.77;;;16.20;96.80;;;;;;5094757;28;20111;-80
2023/08/31 00:48:48;;;;;;;2.63;0.90;;;16.20;96.90;;;;;;5097026;28;20059;-79
2023/08/31 00:51:14;;;;;;;2.38;0.73;;;16.20;96.70;;;;;;5096034;28;20040;-80
2023/08/31 00:53:41;;;;;;;1.45;0.90;;;16.20;96.80;;;;;;5095176;28;20025;-80
2023/08/31 00:56:08;;;;;;;2.38;0.98;;;16.10;96.50;;;;;;5096239;28;20029;-80
2023/08/31 00:58:33;;;;;;;1.98;0.63;;;16.00;96.70;;;;;;5094080;28;20039;-80
2023/08/31 01:01:29;;;;;;;2.50;0.90;;;16.00;96.80;;;;;;5096417;28;20036;-79
2023/08/31 01:04:12;;;;;;;2.90;1.08;;;16.10;97.10;;;;;;5095923;28;20468;-80
2023/08/31 01:07:03;;;;;;;3.28;1.05;;;16.10;97.00;;;;;;5096260;28;20118;-80
2023/08/31 01:09:56;;;;;;;2.10;1.13;;;16.10;97.00;;;;;;5098934;28;20032;-80
2023/08/31 01:12:37;;;;;;;3.58;1.70;;;16.10;96.90;;;;;;5097584;28;20060;-78
2023/08/31 01:15:07;;;;;;;4.47;2.00;;;16.00;96.90;;;;;;5096595;28;20028;-80
2023/08/31 01:17:42;;;;;;;2.65;2.45;;;15.90;96.90;;;;;;5097359;28;20024;-80
2023/08/31 01:20:09;;;;;;;4.20;2.70;;;15.90;97.00;;;;;;5096623;28;20020;-79
2023/08/31 01:22:59;;;;;;;4.68;2.58;;;15.90;97.10;;;;;;5096475;28;20028;-79
2023/08/31 01:25:25;;;;;;;7.60;3.38;;;15.80;97.10;;;;;;5092919;28;20036;-80
2023/08/31 01:27:51;;;;;;;5.30;3.42;;;15.80;97.30;;;;;;5094078;28;20112;-79
2023/08/31 01:30:17;;;;;;;6.65;3.72;;;15.70;97.50;;;;;;5093438;28;20068;-79
2023/08/31 01:32:47;;;;;;;6.97;4.13;;;15.60;97.60;;;;;;5095733;28;20458;-80
2023/08/31 01:35:15;;;;;;;6.00;5.40;;;15.50;97.90;;;;;;5094914;28;20024;-79
2023/08/31 01:37:51;;;;;;;7.93;4.90;;;15.40;98.20;;;;;;5094812;28;20044;-80
2023/08/31 01:40:19;;;;;;;6.22;4.25;;;15.30;98.30;;;;;;5095967;28;20028;-79
2023/08/31 01:42:47;;;;;;;7.15;4.50;;;15.30;98.50;;;;;;5093924;28;20030;-81
2023/08/31 01:45:16;;;;;;;6.00;4.28;;;15.30;98.50;;;;;;5096013;28;20126;-80
2023/08/31 01:47:42;;;;;;;6.75;5.10;;;15.30;98.60;;;;;;5094534;28;20020;-80
2023/08/31 01:50:09;;;;;;;11.43;6.43;;;15.40;98.60;;;;;;5096622;28;20058;-81
2023/08/31 01:52:34;;;;;;;6.95;4.13;;;15.40;98.70;;;;;;5096403;28;20135;-79
2023/08/31 01:55:00;;;;;;;7.72;5.70;;;15.30;98.80;;;;;;5097273;28;20508;-80
2023/08/31 01:57:26;;;;;;;5.53;4.93;;;15.30;99.00;;;;;;5096626;28;20111;-80
2023/08/31 01:59:51;;;;;;;6.07;3.33;;;15.30;99.00;;;;;;5098365;28;20426;-79
2023/08/31 02:02:17;;;;;;;7.80;5.13;;;15.30;99.10;;;;;;5098871;28;20468;-79
2023/08/31 02:04:43;;;;;;;8.23;5.88;;;15.30;99.20;;;;;;5099430;28;20032;-81
2023/08/31 02:07:09;;;;;;;7.97;6.25;;;15.40;99.20;;;;;;5095381;28;20039;-80
2023/08/31 02:09:35;;;;;;;7.55;5.32;;;15.40;99.10;;;;;;5094875;28;20379;-80
2023/08/31 02:12:00;;;;;;;8.75;5.18;;;15.40;99.10;;;;;;5094936;28;20036;-80
2023/08/31 02:14:26;;;;;;;6.05;4.50;;;15.40;99.00;;;;;;5096629;28;20448;-81
2023/08/31 02:16:52;;;;;;;8.77;5.90;;;15.40;99.10;;;;;;5093103;28;20078;-80
2023/08/31 02:19:17;;;;;;;6.78;4.28;;;15.50;99.30;;;;;;5094173;28;20081;-81
2023/08/31 02:21:43;;;;;;;7.82;5.95;;;15.50;99.20;;;;;;5096084;28;20054;-81
2023/08/31 02:24:09;;;;;;;8.88;6.47;;;15.50;99.30;;;;;;5095589;28;20046;-81
2023/08/31 02:26:37;;;;;;;8.80;6.00;;;15.40;99.20;;;;;;5097349;28;20417;-79
2023/08/31 02:29:03;;;;;;;9.98;7.05;;;15.50;99.30;;;;;;5078814;28;20024;-80
2023/08/31 02:31:29;;;;;;;8.15;6.72;;;15.40;99.30;;;;;;5082689;28;20039;-81
2023/08/31 02:33:55;;;;;;;5.00;3.53;;;15.40;99.40;;;;;;5087845;28;20039;-80
2023/08/31 02:36:21;;;;;;;6.95;5.10;;;15.40;99.50;;;;;;5101856;28;20051;-80
2023/08/31 02:38:46;;;;;;;8.80;7.15;;;15.40;99.60;;;;;;5103719;28;20459;-80
2023/08/31 02:41:12;;;;;;;9.38;7.10;;;15.40;99.70;;;;;;5084633;28;20354;-80
2023/08/31 02:43:39;;;;;;;8.15;7.28;;;15.40;99.80;;;;;;5102503;28;20349;-81
2023/08/31 02:46:05;;;;;;;10.13;8.10;;;15.30;99.90;;;;;;5097948;28;20024;-81
2023/08/31 02:48:32;;;;;;;6.50;5.32;;;15.30;99.90;;;;;;5099822;28;20388;-81
2023/08/31 02:51:02;;;;;;;4.65;3.25;;;15.30;99.90;;;;;;5096346;28;20039;-82
2023/08/31 02:53:31;;;;;;;7.28;5.30;;;15.30;99.90;;;;;;5093198;28;20028;-81
2023/08/31 02:55:57;;;;;;;5.57;3.75;;;15.40;99.90;;;;;;5093910;28;20472;-82
2023/08/31 02:58:23;;;;;;;5.30;2.58;;;15.40;99.90;;;;;;5092261;28;20032;-80
2023/08/31 03:00:48;;;;;;;6.15;4.72;;;15.50;99.90;;;;;;5093068;28;20028;-82
2023/08/31 03:03:16;;;;;;;4.47;3.67;;;15.60;99.90;;;;;;5093211;28;20089;-82
2023/08/31 03:05:42;;;;;;;9.95;7.80;;;15.70;99.90;;;;;;5092036;28;20036;-82
2023/08/31 03:08:07;;;;;;;7.78;6.05;;;15.60;99.90;;;;;;5092137;28;20028;-82
2023/08/31 03:10:33;;;;;;;3.67;2.78;;;15.50;99.90;;;;;;5093346;28;20106;-82
2023/08/31 03:12:59;;;;;;;6.90;5.75;;;15.60;99.90;;;;;;5091692;28;20036;-82
2023/08/31 03:15:24;;;;;;;5.63;4.78;;;15.70;99.90;;;;;;5091933;28;20028;-79
2023/08/31 03:17:50;;;;;;;3.88;2.95;;;15.70;99.90;;;;;;5093574;28;20020;-83
2023/08/31 03:20:16;;;;;;;4.13;2.88;;;15.70;99.90;;;;;;5077632;28;20044;-83
2023/08/31 03:22:41;;;;;;;5.50;2.92;;;15.80;99.90;;;;;;5097377;28;20028;-82
2023/08/31 03:25:08;;;;;;;3.97;2.95;;;15.90;99.90;;;;;;5096107;28;20035;-82
2023/08/31 03:27:33;;;;;;;6.13;4.72;;;15.90;99.90;;;;;;5097052;28;20499;-82
2023/08/31 03:29:59;;;;;;;9.25;7.85;;;15.90;99.90;;;;;;5096252;28;20115;-80
2023/08/31 03:32:25;;;;;;;4.95;4.38;;;15.90;99.90;;;;;;5097681;28;20172;-82
2023/08/31 03:34:50;;;;;;;8.65;6.22;;;15.90;99.90;;;;;;5098533;28;20368;-80
2023/08/31 03:37:16;;;;;;;6.30;3.30;;;15.90;99.90;;;;;;5099275;28;20048;-81
2023/08/31 03:39:42;;;;;;;2.28;1.88;;;15.90;99.90;;;;;;5101050;28;20460;-81
2023/08/31 03:42:09;;;;;;;3.28;2.50;;;16.10;99.90;;;;;;5098850;28;20032;-81
2023/08/31 03:44:35;;;;;;;6.15;4.15;;;16.10;99.90;;;;;;5103735;28;20024;-80
2023/08/31 03:47:01;;;;;;;3.97;2.80;;;16.20;99.80;;;;;;5101324;28;20046;-81
2023/08/31 03:49:27;;;;;;;5.30;4.28;;;16.30;99.60;;;;;;5096386;28;20032;-79
2023/08/31 03:51:55;;;;;;;3.22;1.92;;;16.40;99.50;;;;;;5098315;28;20033;-79
2023/08/31 03:54:21;;;;;;;3.40;3.00;;;16.40;99.50;;;;;;5099791;28;20067;-81
2023/08/31 03:56:46;;;;;;;5.28;4.35;;;16.40;99.40;;;;;;5099685;28;20032;-81
2023/08/31 03:59:12;;;;;;;5.22;3.67;;;16.50;99.30;;;;;;5102020;28;20032;-81
2023/08/31 04:01:38;;;;;;;4.40;2.88;;;16.50;99.20;;;;;;5102648;28;20035;-81
2023/08/31 04:04:04;;;;;;;4.18;3.05;;;16.50;99.30;;;;;;5102405;28;20051;-81
2023/08/31 04:06:30;;;;;;;9.35;6.68;;;16.50;99.20;;;;;;5102747;28;20035;-82
2023/08/31 04:08:56;;;;;;;5.25;4.25;;;16.50;99.10;;;;;;5084494;28;20052;-79
2023/08/31 04:11:22;;;;;;;10.05;6.78;;;16.50;98.80;;;;;;5098778;28;20039;-82
2023/08/31 04:13:47;;;;;;;11.27;7.35;;;16.50;98.80;;;;;;5097802;28;20082;-82
2023/08/31 04:16:13;;;;;;;5.70;5.05;;;16.40;98.80;;;;;;5096616;28;20404;-79
2023/08/31 04:18:39;;;;;;;9.65;6.63;;;16.30;98.90;;;;;;5099344;28;20024;-79
2023/08/31 04:21:06;;;;;;;5.55;4.07;;;16.30;98.80;;;;;;5097941;28;20036;-80
2023/08/31 04:23:32;;;;;;;8.75;7.55;;;16.20;98.90;;;;;;5096646;28;20024;-78
2023/08/31 04:25:58;;;;;;;5.75;4.50;;;16.10;99.00;;;;;;5080659;28;20032;-80
2023/08/31 04:28:24;;;;;;;3.33;3.03;;;16.10;99.20;;;;;;5097946;28;20032;-80
2023/08/31 04:30:50;;;;;;;5.28;4.18;;;16.20;99.30;;;;;;5080520;28;20032;-80
2023/08/31 04:33:15;;;;;;;5.07;4.05;;;16.20;99.50;;;;;;5096836;28;20373;-81
2023/08/31 04:35:41;;;;;;;8.57;5.85;;;16.20;99.50;;;;;;5098987;28;20031;-80
2023/08/31 04:38:07;;;;;;;9.63;7.20;;;16.20;99.50;;;;;;5090785;28;20080;-81
2023/08/31 04:40:36;;;;;;;11.40;5.68;;;16.20;99.40;;;;;;5100864;28;20032;-80
2023/08/31 04:43:02;;;;;;;9.13;6.80;;;16.20;99.40;;;;;;5098675;28;20043;-80
2023/08/31 04:45:28;;;;;;;10.10;6.47;;;16.20;99.30;;;;;;5079880;28;20036;-80
2023/08/31 04:47:54;;;;;;;13.40;6.93;;;16.20;99.20;;;;;;5099015;28;20035;-81
2023/08/31 04:50:20;;;;;;;6.43;5.38;;;16.10;99.30;;;;;;5081996;28;20085;-81
2023/08/31 04:52:45;;;;;;;7.32;5.30;;;16.10;99.40;;;;;;5100618;28;20461;-80
2023/08/31 04:55:13;;;;;;;12.82;6.55;;;16.10;99.60;;;;;;5099150;28;20492;-80
2023/08/31 04:57:39;;;;;;;9.75;7.20;;;16.00;99.60;;;;;;5098147;28;20028;-79
2023/08/31 05:00:07;;;;;;;9.30;7.03;;;16.00;99.70;;;;;;5096531;28;20039;-80
2023/08/31 05:02:32;;;;;;;10.30;7.63;;;15.90;99.80;;;;;;5096036;28;20415;-79
2023/08/31 05:04:58;;;;;;;10.02;7.40;;;15.90;99.90;;;;;;5082780;28;20026;-80
2023/08/31 05:07:24;;;;;;;11.73;7.30;;;15.80;99.90;;;;;;5098027;28;20031;-79
2023/08/31 05:09:50;;;;;;;9.27;7.20;;;15.60;99.90;;;;;;5101473;28;20036;-80
2023/08/31 05:12:17;;;;;;;11.40;7.30;;;15.50;99.90;;;;;;5099283;28;20061;-80
2023/08/31 05:14:43;;;;;;;8.23;7.00;;;15.50;99.90;;;;;;5097958;28;20052;-80
2023/08/31 05:17:08;;;;;;;10.85;7.40;;;15.50;99.90;;;;;;5103265;28;20032;-80
2023/08/31 05:19:34;;;;;;;9.45;8.38;;;15.30;99.90;;;;;;5099865;28;20027;-79
2023/08/31 05:22:00;;;;;;;11.80;7.65;;;15.30;99.90;;;;;;5099513;28;20032;-79
2023/08/31 05:24:26;;;;;;;15.35;9.48;;;15.20;99.90;;;;;;5100233;28;20039;-79
2023/08/31 05:26:51;;;;;;;12.27;9.02;;;15.20;99.90;;;;;;5099582;28;20020;-79
2023/08/31 05:29:17;;;;;;;11.25;8.48;;;15.20;99.90;;;;;;5097175;28;20395;-79
2023/08/31 05:31:43;;;;;;;13.43;9.35;;;15.10;99.90;;;;;;5096977;28;20036;-80
2023/08/31 05:34:17;;;;;;;14.50;9.82;;;15.10;99.90;;;;;;5106779;28;20032;-80
2023/08/31 05:36:43;;;;;;;11.48;9.80;;;15.10;99.90;;;;;;5106043;28;20035;-79
2023/08/31 05:39:09;;;;;;;14.25;10.13;;;15.10;99.90;;;;;;5107342;28;20480;-79
2023/08/31 05:41:35;;;;;;;14.40;10.45;;;15.00;99.90;;;;;;5108064;28;20035;-79
2023/08/31 05:44:01;;;;;;;14.90;10.80;;;15.10;99.90;;;;;;5086712;28;20380;-79
2023/08/31 05:46:27;;;;;;;14.88;11.27;;;15.10;99.90;;;;;;5103405;28;20028;-80
2023/08/31 05:48:53;;;;;;;15.18;11.02;;;15.10;99.90;;;;;;5104575;28;20122;-80
2023/08/31 05:51:18;;;;;;;14.32;11.30;;;15.00;99.90;;;;;;5105316;28;20456;-80
2023/08/31 05:53:44;;;;;;;10.02;8.55;;;15.10;99.90;;;;;;5103363;28;20483;-80
2023/08/31 05:56:10;;;;;;;15.27;11.82;;;15.10;99.90;;;;;;5096215;28;20041;-80
2023/08/31 05:58:37;;;;;;;13.90;10.85;;;15.10;99.90;;;;;;5095036;28;20028;-79
2023/08/31 06:01:04;;;;;;;12.48;9.90;;;15.10;99.90;;;;;;5093883;28;20036;-79
2023/08/31 06:03:30;;;;;;;13.60;11.20;;;15.10;99.90;;;;;;5093790;28;20027;-79
2023/08/31 06:05:57;;;;;;;14.48;12.27;;;15.20;99.90;;;;;;5093924;28;20494;-81
2023/08/31 06:08:23;;;;;;;15.20;10.70;;;15.20;99.90;;;;;;5096032;28;20107;-83
2023/08/31 06:10:49;;;;;;;13.45;10.23;;;15.20;99.90;;;;;;5093413;28;20465;-81
2023/08/31 06:13:14;;;;;;;15.45;11.45;;;15.20;99.90;;;;;;5094378;28;20042;-80
2023/08/31 06:15:40;;;;;;;13.93;11.38;;;15.30;99.90;;;;;;5078226;28;20028;-78
2023/08/31 06:18:06;;;;;;;16.30;12.10;;;15.30;99.90;;;;;;5095118;28;20479;-78
2023/08/31 06:20:32;;;;;;;13.05;10.73;;;15.30;99.90;;;;;;5094120;28;20039;-78
2023/08/31 06:22:59;;;;;;;13.68;11.00;;;15.30;99.90;;;;;;5093837;28;20416;-78
2023/08/31 06:25:24;;;;;;;12.65;11.35;;;15.20;99.90;;;;;;5093817;28;20054;-78
2023/08/31 06:27:51;;;;;;;10.20;9.05;;;15.20;99.90;;;;;;5093654;28;20024;-79
2023/08/31 06:30:17;;;;;;;14.88;9.48;;;15.20;99.90;;;;;;5092405;28;20499;-81
2023/08/31 06:32:47;;;;;;;7.28;6.32;;;15.20;99.90;;;;;;5093925;28;20153;-78
2023/08/31 06:35:15;;;;;;;11.45;9.25;;;15.30;99.90;;;;;;5095296;28;20027;-81
2023/08/31 06:37:41;;;;;;;13.55;8.35;;;15.40;99.90;;;;;;5094150;28;20034;-80
2023/08/31 06:40:10;;;;;;;13.45;9.43;;;15.50;99.90;;;;;;5093496;28;20464;-79
2023/08/31 06:42:37;;;;;;;7.88;5.93;;;15.50;99.90;;;;;;5095360;28;20376;-81
2023/08/31 06:45:07;;;;;;;9.65;6.60;;;15.70;99.90;;;;;;5094677;28;20038;-81
2023/08/31 06:47:34;;;;;;;10.82;8.02;;;15.80;99.90;;;;;;5093733;28;20492;-82
2023/08/31 06:50:00;;;;;;;9.10;7.15;;;15.80;99.90;;;;;;5095930;28;20528;-81
2023/08/31 06:52:27;;;;;;;11.98;7.20;;;15.80;99.90;;;;;;5095088;28;20440;-81
2023/08/31 06:54:56;;;;;;;9.32;6.95;;;15.80;99.90;;;;;;5093017;28;20059;-81
2023/08/31 06:57:27;;;;;;;9.07;7.78;;;15.70;99.90;;;;;;5092543;28;20093;-81
2023/08/31 06:59:53;;;;;;;8.75;7.55;;;15.70;99.90;;;;;;5093986;28;20028;-80
2023/08/31 07:02:19;;;;;;;9.98;7.95;;;15.70;99.90;;;;;;5091956;28;20036;-82
2023/08/31 07:04:46;;;;;;;10.20;8.43;;;15.60;99.90;;;;;;5092808;28;20040;-81
2023/08/31 07:07:13;;;;;;;11.10;8.30;;;15.70;99.90;;;;;;5092921;28;20073;-83
2023/08/31 07:09:43;;;;;;;11.43;8.60;;;15.70;99.90;;;;;;5091863;28;20079;-81
2023/08/31 07:12:10;;;;;;;10.93;8.55;;;15.70;99.90;;;;;;5091851;28;20035;-81
2023/08/31 07:14:35;;;;;;;9.93;8.23;;;15.60;99.90;;;;;;5093282;28;20119;-83
2023/08/31 07:17:01;;;;;;;14.95;9.73;;;15.60;99.90;;;;;;5075474;28;20171;-81
2023/08/31 07:19:27;;;;;;;11.23;9.05;;;15.60;99.90;;;;;;5092782;28;20024;-82
2023/08/31 07:21:54;;;;;;;12.00;8.55;;;15.50;99.90;;;;;;5092076;28;20496;-80
2023/08/31 07:24:21;;;;;;;13.90;8.30;;;15.60;99.90;;;;;;5092552;28;20032;-82
2023/08/31 07:26:47;;;;;;;9.88;8.68;;;15.60;99.90;;;;;;5092706;28;20372;-83
2023/08/31 07:29:13;;;;;;;11.75;9.68;;;15.50;99.90;;;;;;5091389;28;20448;-83
2023/08/31 07:31:38;;;;;;;10.65;8.85;;;15.40;99.90;;;;;;5093161;28;20040;-82
2023/08/31 07:34:04;;;;;;;10.77;7.35;;;15.40;99.90;;;;;;5091871;28;20044;-83
2023/08/31 07:36:30;;;;;;;13.05;9.10;;;15.40;99.90;;;;;;5091519;28;20545;-78
2023/08/31 07:38:55;;;;;;;13.25;8.85;;;15.40;99.90;;;;;;5092979;28;20170;-81
2023/08/31 07:41:21;;;;;;;11.38;8.63;;;15.50;99.90;;;;;;5092780;28;20028;-82
2023/08/31 07:43:48;;;;;;;8.88;7.50;;;15.40;99.90;;;;;;5092872;28;20028;-83
2023/08/31 07:46:14;;;;;;;14.70;10.20;;;15.50;99.90;;;;;;5095223;28;20488;-83
2023/08/31 07:48:40;;;;;;;11.18;8.98;;;15.60;99.90;;;;;;5091482;28;20144;-82
2023/08/31 07:51:05;;;;;;;12.20;7.53;;;15.70;99.90;;;;;;5093229;28;20059;-82
2023/08/31 07:53:31;;;;;;;13.23;8.93;;;15.70;99.90;;;;;;5092160;28;20028;-80
2023/08/31 07:55:57;;;;;;;10.13;8.10;;;15.80;99.90;;;;;;5094079;28;20090;-79
2023/08/31 07:58:23;;;;;;;15.45;8.43;;;15.80;99.90;;;;;;5093841;28;20074;-82
2023/08/31 08:00:52;;;;;;;6.78;5.13;;;15.80;99.90;;;;;;5094148;28;20541;-80
2023/08/31 08:03:17;;;;;;;9.32;6.50;;;15.80;99.90;;;;;;5095171;28;20178;-81
2023/08/31 08:05:43;;;;;;;11.77;8.57;;;15.80;99.90;;;;;;5096211;28;20059;-79
2023/08/31 08:08:09;;;;;;;10.82;6.63;;;15.90;99.90;;;;;;5101898;28;20028;-82
2023/08/31 08:10:35;;;;;;;13.65;8.07;;;15.90;99.90;;;;;;5103427;28;20477;-81
2023/08/31 08:13:00;;;;;;;8.60;7.18;;;15.90;99.90;;;;;;5100537;28;20036;-81
2023/08/31 08:15:26;;;;;;;11.10;6.10;;;15.90;99.90;;;;;;5104822;28;20115;-78
2023/08/31 08:17:53;;;;;;;6.03;4.72;;;15.90;99.90;;;;;;5100224;28;20039;-79
2023/08/31 08:20:19;;;;;;;10.05;7.88;;;16.00;99.90;;;;;;5097680;28;20428;-80
2023/08/31 08:22:45;;;;;;;7.53;5.32;;;16.10;99.90;;;;;;5098482;28;20028;-80
2023/08/31 08:25:11;;;;;;;5.28;3.35;;;16.10;99.90;;;;;;5101564;28;20032;-80
2023/08/31 08:27:36;;;;;;;8.48;5.57;;;16.20;99.90;;;;;;5100147;28;20024;-78
2023/08/31 08:30:03;;;;;;;8.38;5.15;;;16.30;99.90;;;;;;5096038;28;20348;-81
2023/08/31 08:32:29;;;;;;;10.25;6.97;;;16.40;99.90;;;;;;5097694;28;20028;-80
2023/08/31 08:34:55;;;;;;;9.75;6.18;;;16.60;99.90;;;;;;5110171;28;20035;-79
2023/08/31 08:37:20;;;;;;;13.65;7.50;;;16.80;99.90;;;;;;5106348;28;20451;-80
2023/08/31 08:39:50;;;;;;;8.77;5.40;;;16.90;99.90;;;;;;5105873;28;20043;-80
2023/08/31 08:42:19;;;;;;;9.85;6.53;;;17.00;99.90;;;;;;5099616;28;20502;-79
2023/08/31 08:44:45;;;;;;;8.10;5.63;;;17.00;99.90;;;;;;5095175;28;20020;-78
2023/08/31 08:47:12;;;;;;;6.75;5.35;;;17.00;99.90;;;;;;5098212;28;20441;-81
2023/08/31 08:49:38;;;;;;;5.88;4.22;;;17.00;99.90;;;;;;5097713;28;20409;-80
2023/08/31 08:52:04;;;;;;;9.40;5.53;;;17.00;99.90;;;;;;5096107;28;20028;-82
2023/08/31 08:54:30;;;;;;;11.30;6.30;;;17.10;99.90;;;;;;5094438;28;20024;-80
2023/08/31 08:56:56;;;;;;;8.80;6.10;;;17.10;99.90;;;;;;5096170;28;20039;-82
2023/08/31 08:59:22;;;;;;;8.90;5.85;;;17.00;99.90;;;;;;5096230;28;20024;-80
2023/08/31 09:01:48;;;;;;;12.10;6.32;;;17.00;99.90;;;;;;5095990;28;20341;-79
2023/08/31 09:04:14;;;;;;;13.80;6.63;;;17.00;99.90;;;;;;5094391;28;20051;-79
2023/08/31 09:06:40;;;;;;;8.98;6.50;;;17.10;99.90;;;;;;5080839;28;20390;-80
2023/08/31 09:09:09;;;;;;;10.90;6.90;;;17.10;99.90;;;;;;5096962;28;20043;-79
2023/08/31 09:11:35;;;;;;;8.63;6.80;;;17.20;99.90;;;;;;5096046;28;20513;-79
2023/08/31 09:14:15;;;;;;;7.40;5.78;;;17.30;99.90;;;;;;5098747;28;20031;-79
2023/08/31 09:16:48;;;;;;;9.55;5.80;;;17.30;99.90;;;;;;5096445;28;20366;-80
2023/08/31 09:19:25;;;;;;;8.70;5.45;;;17.30;99.90;;;;;;5096571;28;20031;-81
2023/08/31 09:21:52;;;;;;;9.00;5.00;;;17.50;99.90;;;;;;5096291;28;20046;-80
2023/08/31 09:24:18;;;;;;;8.10;5.50;;;17.80;99.90;;;;;;5095375;28;20016;-80
2023/08/31 09:26:46;;;;;;;10.90;5.65;;;18.00;99.90;;;;;;5095694;28;20024;-80
2023/08/31 09:29:12;;;;;;;9.45;4.57;;;18.30;99.90;;;;;;5096305;28;20028;-81
2023/08/31 09:31:41;;;;;;;7.07;4.63;;;18.60;99.90;;;;;;5094154;28;20364;-81
2023/08/31 09:34:06;;;;;;;8.15;4.40;;;18.60;99.90;;;;;;5098416;28;20093;-79
2023/08/31 09:36:32;;;;;;;6.45;2.90;;;18.60;99.90;;;;;;5100231;28;20440;-81
2023/08/31 09:38:58;;;;;;;6.40;2.63;;;18.50;99.30;;;;;;5095266;28;20047;-81
2023/08/31 09:41:24;;;;;;;4.80;2.42;;;18.70;99.30;;;;;;5093273;28;20050;-80
2023/08/31 09:43:50;;;;;;;3.67;2.00;;;18.90;98.90;;;;;;5095082;28;20476;-80
2023/08/31 09:46:16;;;;;;;6.60;2.15;;;19.00;98.20;;;;;;5094136;28;20035;-82
2023/08/31 09:48:43;;;;;;;4.55;2.00;;;19.10;98.20;;;;;;5096526;28;20024;-81
2023/08/31 09:51:14;;;;;;;5.07;1.92;;;19.00;97.20;;;;;;5095255;28;20024;-80
2023/08/31 09:53:42;;;;;;;4.53;1.70;;;19.10;97.30;;;;;;5095595;28;20032;-81
2023/08/31 09:56:12;;;;;;;7.63;2.28;;;19.20;96.10;;;;;;5095762;28;20028;-80
2023/08/31 09:58:38;;;;;;;4.97;1.92;;;19.10;96.00;;;;;;5096228;28;20016;-80
2023/08/31 10:01:06;;;;;;;6.38;2.47;;;18.90;96.30;;;;;;5094852;28;20028;-80
2023/08/31 10:03:32;;;;;;;7.03;2.30;;;18.80;96.40;;;;;;5097061;28;20031;-80
2023/08/31 10:05:58;;;;;;;4.38;1.95;;;18.70;96.80;;;;;;5096532;28;20329;-80
2023/08/31 10:08:28;;;;;;;4.82;2.17;;;18.70;97.10;;;;;;5096825;28;20032;-80
2023/08/31 10:10:54;;;;;;;5.40;2.58;;;18.60;97.50;;;;;;5095551;28;20081;-80
2023/08/31 10:13:22;;;;;;;3.25;1.95;;;18.60;97.70;;;;;;5095071;28;20521;-79
2023/08/31 10:15:49;;;;;;;3.55;2.15;;;18.60;98.00;;;;;;5094180;28;20448;-80
2023/08/31 10:18:16;;;;;;;5.85;2.50;;;18.60;98.20;;;;;;5093803;28;20084;-79
2023/08/31 10:20:44;;;;;;;5.25;2.42;;;18.60;98.40;;;;;;5094662;28;20111;-80
2023/08/31 10:23:09;;;;;;;4.85;2.00;;;18.50;98.30;;;;;;5095398;28;20028;-80
2023/08/31 10:25:50;;;;;;;4.90;2.28;;;18.40;98.40;;;;;;5096318;28;20043;-79
2023/08/31 10:28:28;;;;;;;5.13;2.00;;;18.40;98.40;;;;;;5095871;28;20049;-80
2023/08/31 10:31:20;;;;;;;4.25;1.50;;;18.40;98.60;;;;;;5093160;28;20031;-80
2023/08/31 10:33:47;;;;;;;4.55;1.75;;;18.40;98.90;;;;;;5094338;28;20032;-81
2023/08/31 10:36:19;;;;;;;5.13;2.00;;;18.30;98.90;;;;;;5094330;28;20028;-81
2023/08/31 10:39:19;;;;;;;5.15;2.17;;;18.40;98.90;;;;;;5095008;28;20040;-82
2023/08/31 10:42:00;;;;;;;3.55;1.60;;;18.40;98.80;;;;;;5093879;28;20028;-82
2023/08/31 10:44:28;;;;;;;3.95;1.30;;;18.60;98.40;;;;;;5093515;28;20073;-81
2023/08/31 10:46:54;;;;;;;3.47;1.00;;;18.80;97.70;;;;;;5092980;28;20032;-81
2023/08/31 10:49:21;;;;;;;2.35;0.68;;;19.00;95.70;;;;;;5093842;28;20039;-81
2023/08/31 10:51:50;;;;;;;3.00;0.45;;;19.20;94.70;;;;;;5094016;28;20028;-81
2023/08/31 10:54:18;;;;;;;2.67;0.70;;;19.40;93.80;;;;;;5093890;28;20028;-81
2023/08/31 10:57:10;;;;;;;2.53;0.38;;;19.60;93.00;;;;;;5094140;28;20016;-79
2023/08/31 10:59:48;;;;;;;1.98;0.30;;;19.80;92.50;;;;;;5096560;28;20024;-82
2023/08/31 11:02:36;;;;;;;2.83;0.52;;;20.00;92.30;;;;;;5093992;28;20035;-81
2023/08/31 11:05:09;;;;;;;3.42;0.50;;;20.20;91.90;;;;;;5096237;28;20471;-76
2023/08/31 11:07:35;;;;;;;7.05;0.70;;;20.30;92.00;;;;;;5092928;28;20028;-72
2023/08/31 11:10:17;;;;;;;3.00;0.45;;;20.40;90.90;;;;;;5092835;28;20062;-72
2023/08/31 11:12:45;;;;;;;1.83;0.55;;;20.40;91.00;;;;;;5093115;28;20032;-72
2023/08/31 11:15:13;;;;;;;1.60;0.40;;;20.50;91.00;;;;;;5092819;28;20459;-73
2023/08/31 11:17:40;;;;;;;3.60;0.52;;;20.50;90.80;;;;;;5092811;28;20024;-74
2023/08/31 11:20:09;;;;;;;3.38;0.50;;;20.60;90.30;;;;;;5093348;28;20039;-74
2023/08/31 11:22:38;;;;;;;4.22;0.70;;;20.70;89.90;;;;;;5092757;28;20035;-75
2023/08/31 11:25:04;;;;;;;3.72;0.93;;;20.70;90.00;;;;;;5091967;28;20407;-75
2023/08/31 11:27:29;;;;;;;3.53;0.50;;;20.80;90.20;;;;;;5093085;28;20024;-75
2023/08/31 11:29:55;;;;;;;2.05;0.52;;;21.00;89.40;;;;;;5093207;28;20043;-75
2023/08/31 11:32:24;;;;;;;4.20;0.40;;;21.00;88.10;;;;;;5092407;28;20032;-76
2023/08/31 11:34:50;;;;;;;1.88;0.45;;;21.00;86.70;;;;;;5093513;28;20112;-77
2023/08/31 11:37:17;;;;;;;3.78;0.40;;;20.90;87.60;;;;;;5091202;28;20040;-76
2023/08/31 11:39:54;;;;;;;3.08;0.55;;;20.90;88.90;;;;;;5092309;28;20060;-76
2023/08/31 11:42:21;;;;;;;2.20;0.20;;;21.00;86.90;;;;;;5097298;28;20036;-75
2023/08/31 11:44:49;;;;;;;2.63;0.52;;;21.00;85.50;;;;;;5096641;28;20480;-74
2023/08/31 11:47:16;;;;;;;2.13;0.30;;;21.20;86.00;;;;;;5097269;28;20063;-74
2023/08/31 11:49:42;;;;;;;2.63;0.25;;;21.30;85.50;;;;;;5097056;28;20417;-74
2023/08/31 11:52:12;;;;;;;3.22;0.20;;;21.50;83.70;;;;;;5096614;28;20032;-75
2023/08/31 11:54:42;;;;;;;1.80;0.30;;;21.60;81.10;;;;;;5096586;28;20106;-76
2023/08/31 11:57:09;;;;;;;2.17;0.20;;;21.70;81.50;;;;;;5096100;28;20361;-75
2023/08/31 11:59:36;;;;;;;2.15;0.20;;;21.80;81.30;;;;;;5094640;28;20464;-75
2023/08/31 12:02:04;;;;;;;2.13;0.28;;;21.90;78.00;;;;;;5095389;28;20131;-74
2023/08/31 12:04:30;;;;;;;2.10;0.30;;;21.80;74.90;;;;;;5095963;28;20035;-76
2023/08/31 12:07:04;;;;;;;4.90;0.40;;;21.80;74.50;;;;;;5094636;28;20384;-76
2023/08/31 12:09:31;;;;;;;3.03;0.40;;;21.90;75.20;;;;;;5096336;28;20031;-75
2023/08/31 12:11:56;;;;;;;2.28;0.20;;;22.00;77.10;;;;;;5095970;28;20044;-75
2023/08/31 12:14:24;;;;;;;1.40;0.17;;;22.10;74.40;;;;;;5096406;28;20349;-75
2023/08/31 12:16:50;;;;;;;3.13;0.20;;;22.10;72.80;;;;;;5096373;28;20032;-75
2023/08/31 12:19:17;;;;;;;2.47;0.30;;;22.10;73.10;;;;;;5078161;28;20032;-75
2023/08/31 12:21:44;;;;;;;1.02;0.20;;;22.10;72.80;;;;;;5096504;28;20420;-75
2023/08/31 12:24:10;;;;;;;0.73;0.10;;;22.20;74.40;;;;;;5095663;28;20487;-75
2023/08/31 12:26:36;;;;;;;4.05;0.40;;;22.30;75.10;;;;;;5096087;28;20043;-75
2023/08/31 12:29:06;;;;;;;1.83;0.30;;;22.40;72.30;;;;;;5096338;28;20028;-75
2023/08/31 12:31:32;;;;;;;0.73;0.30;;;22.40;72.70;;;;;;5095110;28;20059;-74
2023/08/31 12:33:58;;;;;;;2.90;0.30;;;22.40;73.10;;;;;;5095627;28;20396;-74
2023/08/31 12:36:23;;;;;;;2.78;0.20;;;22.50;72.60;;;;;;5095886;28;20088;-76
2023/08/31 12:38:49;;;;;;;1.42;0.30;;;22.50;71.80;;;;;;5077699;28;20059;-75
2023/08/31 12:41:16;;;;;;;1.70;0.40;;;22.60;71.40;;;;;;5096141;28;20358;-75
2023/08/31 12:43:42;;;;;;;2.90;0.30;;;22.70;72.10;;;;;;5095610;28;20115;-75
2023/08/31 12:46:09;;;;;;;2.40;0.30;;;22.80;72.30;;;;;;5093973;28;20546;-75